^^
Station Historical Data
Daily Summary for March 12, 2017 Units:  English    Metric   Both
« Previous Day
Next Day »
Daily Weekly Monthly Yearly Custom
  High: Low: Average:
Temperature: 31.4 °F 15.9 °F 24.1 °F
Dew Point: 13.4 °F 5.6 °F 9.7 °F
Humidity: 68 % 45 % 54 %
Wind Speed: 14.4 mph 0.0 mph 4.2 mph
Wind Gust: 24.2 mph - -
Wind:- - WNW
Pressure: 30.46 in 30.33 in -
Precipitation: 0.01 in    
Historical Graphs
 
 
Tabular Data for March 12, 2017
Time Temperature Dew Point Pressure Wind Wind Speed Wind Gust Humidity Rainfall Rate (Hourly) solar Conditions
00:02 22.5 °F 7.5 °F 30.33 in WNW 4.6 mph 10.4 mph 52 % 0.00 in 0.0 W/m2 CLR
00:07 22.4 °F 7.8 °F 30.33 in West 9.8 mph 16.1 mph 53 % 0.00 in 0.0 W/m2 CLR
00:12 22.5 °F 7.9 °F 30.33 in WNW 9.2 mph 11.5 mph 53 % 0.00 in 0.0 W/m2 CLR
00:17 22.5 °F 7.9 °F 30.33 in NW 9.0 mph 17.3 mph 53 % 0.00 in 0.0 W/m2 CLR
00:22 22.4 °F 8.2 °F 30.33 in West 3.2 mph 6.9 mph 54 % 0.00 in 0.0 W/m2 CLR
00:27 22.4 °F 8.2 °F 30.33 in NW 4.4 mph 9.2 mph 54 % 0.00 in 0.0 W/m2 CLR
00:32 22.4 °F 8.7 °F 30.34 in WNW 3.4 mph 6.9 mph 55 % 0.00 in 0.0 W/m2 CLR
00:37 22.3 °F 8.6 °F 30.34 in NW 2.4 mph 4.0 mph 55 % 0.00 in 0.0 W/m2 CLR
00:43 22.2 °F 8.9 °F 30.34 in NW 4.4 mph 8.0 mph 56 % 0.00 in 0.0 W/m2 CLR
00:48 22.2 °F 8.9 °F 30.35 in NW 2.3 mph 5.8 mph 56 % 0.00 in 0.0 W/m2 CLR
00:53 22.1 °F 8.8 °F 30.34 in NW 4.8 mph 10.4 mph 56 % 0.00 in 0.0 W/m2 CLR
00:58 22.0 °F 8.7 °F 30.35 in WNW 7.7 mph 13.8 mph 56 % 0.00 in 0.0 W/m2 CLR
01:03 22.0 °F 8.7 °F 30.35 in NW 8.4 mph 12.7 mph 56 % 0.00 in 0.0 W/m2 CLR
01:08 21.9 °F 8.2 °F 30.35 in NW 3.4 mph 8.1 mph 55 % 0.00 in 0.0 W/m2 CLR
01:13 21.9 °F 8.2 °F 30.35 in WNW 8.5 mph 11.5 mph 55 % 0.00 in 0.0 W/m2 CLR
01:18 22.0 °F 7.9 °F 30.35 in NW 8.2 mph 15.0 mph 54 % 0.00 in 0.0 W/m2 CLR
01:23 21.8 °F 8.1 °F 30.35 in NW 5.2 mph 9.2 mph 55 % 0.00 in 0.0 W/m2 CLR
01:28 21.6 °F 8.3 °F 30.35 in WNW 3.5 mph 11.5 mph 56 % 0.00 in 0.0 W/m2 CLR
01:33 21.5 °F 8.2 °F 30.35 in WNW 4.4 mph 8.1 mph 56 % 0.00 in 0.0 W/m2 CLR
01:34 21.5 °F 8.2 °F 30.35 in NW 7.7 mph 11.5 mph 56 % 0.00 in 0.0 W/m2 CLR
01:39 21.5 °F 8.2 °F 30.36 in NNW 6.7 mph 10.4 mph 56 % 0.00 in 0.0 W/m2 CLR
01:44 21.5 °F 8.2 °F 30.36 in NW 4.8 mph 6.9 mph 56 % 0.00 in 0.0 W/m2 CLR
01:49 21.5 °F 7.8 °F 30.35 in WNW 4.7 mph 11.5 mph 55 % 0.00 in 0.0 W/m2 CLR
01:54 21.4 °F 7.7 °F 30.35 in NW 7.6 mph 11.5 mph 55 % 0.00 in 0.0 W/m2 CLR
01:59 21.3 °F 7.6 °F 30.35 in WNW 6.5 mph 11.5 mph 55 % 0.00 in 0.0 W/m2 CLR
03:04 21.0 °F 7.7 °F 30.35 in NW 4.5 mph 11.5 mph 56 % 0.00 in 0.0 W/m2 CLR
03:09 20.9 °F 7.6 °F 30.35 in NW 5.0 mph 8.1 mph 56 % 0.00 in 0.0 W/m2 CLR
03:14 20.7 °F 7.5 °F 30.35 in WNW 4.0 mph 9.2 mph 56 % 0.00 in 0.0 W/m2 CLR
03:19 20.6 °F 7.8 °F 30.35 in NW 3.5 mph 4.6 mph 57 % 0.00 in 0.0 W/m2 CLR
03:24 20.4 °F 7.6 °F 30.35 in WNW 3.3 mph 9.2 mph 57 % 0.00 in 0.0 W/m2 CLR
03:29 20.5 °F 7.7 °F 30.35 in NW 3.6 mph 11.5 mph 57 % 0.00 in 0.0 W/m2 CLR
03:34 20.5 °F 7.3 °F 30.35 in NW 4.5 mph 10.4 mph 56 % 0.00 in 0.0 W/m2 CLR
03:39 20.6 °F 7.4 °F 30.35 in WNW 8.0 mph 12.7 mph 56 % 0.00 in 0.0 W/m2 CLR
03:44 20.6 °F 7.4 °F 30.35 in WNW 3.2 mph 5.8 mph 56 % 0.00 in 0.0 W/m2 CLR
03:49 20.6 °F 7.4 °F 30.35 in NW 5.3 mph 10.4 mph 56 % 0.00 in 0.0 W/m2 CLR
03:54 20.5 °F 7.3 °F 30.34 in NW 11.2 mph 18.4 mph 56 % 0.00 in 0.0 W/m2 CLR
03:59 20.4 °F 7.2 °F 30.34 in WNW 5.5 mph 11.5 mph 56 % 0.00 in 0.0 W/m2 CLR
04:04 20.6 °F 7.0 °F 30.34 in NW 11.6 mph 16.1 mph 55 % 0.00 in 0.0 W/m2 CLR
04:09 20.5 °F 7.3 °F 30.34 in West 9.2 mph 12.7 mph 56 % 0.00 in 0.0 W/m2 CLR
04:14 20.6 °F 7.4 °F 30.34 in NW 7.3 mph 10.4 mph 56 % 0.00 in 0.0 W/m2 CLR
04:19 20.5 °F 6.9 °F 30.34 in WNW 2.2 mph 10.4 mph 55 % 0.00 in 0.0 W/m2 CLR
04:24 20.3 °F 7.1 °F 30.34 in NW 2.3 mph 3.0 mph 56 % 0.00 in 0.0 W/m2 CLR
04:29 20.1 °F 7.3 °F 30.34 in WNW 2.3 mph 5.8 mph 57 % 0.00 in 0.0 W/m2 CLR
04:34 20.2 °F 7.0 °F 30.34 in West 4.0 mph 4.6 mph 56 % 0.00 in 0.0 W/m2 CLR
04:39 20.2 °F 7.0 °F 30.34 in NW 5.0 mph 11.5 mph 56 % 0.00 in 0.0 W/m2 CLR
04:40 20.2 °F 7.0 °F 30.34 in WNW 5.0 mph 12.0 mph 56 % 0.00 in 0.0 W/m2 CLR
04:45 20.3 °F 7.1 °F 30.34 in WNW 4.3 mph 9.0 mph 56 % 0.00 in 0.0 W/m2 CLR
04:50 20.2 °F 6.6 °F 30.34 in NW 5.5 mph 12.7 mph 55 % 0.00 in 0.0 W/m2 CLR
04:55 20.1 °F 6.9 °F 30.33 in NW 6.2 mph 9.2 mph 56 % 0.00 in 0.0 W/m2 CLR
05:00 19.8 °F 6.6 °F 30.34 in WNW 1.4 mph 3.5 mph 56 % 0.00 in 0.0 W/m2 CLR
05:05 19.8 °F 7.0 °F 30.34 in WNW 2.9 mph 7.0 mph 57 % 0.00 in 0.0 W/m2 CLR
05:10 19.7 °F 6.9 °F 30.34 in West 1.6 mph 3.0 mph 57 % 0.00 in 0.0 W/m2 CLR
05:15 19.7 °F 6.9 °F 30.33 in NW 1.1 mph 4.6 mph 57 % 0.00 in 0.0 W/m2 CLR
05:20 19.7 °F 6.9 °F 30.33 in WNW 3.5 mph 8.1 mph 57 % 0.00 in 0.0 W/m2 CLR
05:25 19.6 °F 6.8 °F 30.33 in WNW 0.7 mph 3.5 mph 57 % 0.00 in 0.0 W/m2 CLR
05:30 19.5 °F 6.7 °F 30.34 in Calm   1.2 mph 57 % 0.00 in 0.0 W/m2 CLR
05:35 19.5 °F 6.7 °F 30.33 in WNW 1.0 mph 3.5 mph 57 % 0.00 in 0.0 W/m2 CLR
05:40 19.6 °F 6.8 °F 30.33 in WNW 0.6 mph 6.9 mph 57 % 0.00 in 0.0 W/m2 CLR
05:41 19.6 °F 6.8 °F 30.33 in Calm     57 % 0.00 in 0.0 W/m2 CLR
05:46 19.6 °F 6.8 °F 30.33 in WNW 0.2 mph 2.3 mph 57 % 0.00 in 0.0 W/m2 CLR
05:51 19.5 °F 7.1 °F 30.34 in Calm     58 % 0.00 in 0.0 W/m2 CLR
05:56 19.3 °F 6.9 °F 30.34 in Calm   1.2 mph 58 % 0.00 in 0.0 W/m2 CLR
06:01 19.3 °F 7.3 °F 30.34 in Calm     59 % 0.00 in 0.0 W/m2 CLR
06:06 19.1 °F 7.1 °F 30.33 in Calm     59 % 0.00 in 0.0 W/m2 CLR
06:11 18.8 °F 6.8 °F 30.33 in Calm     59 % 0.00 in 0.0 W/m2 CLR
06:16 18.6 °F 7.0 °F 30.33 in Calm     60 % 0.00 in 0.0 W/m2 CLR
06:21 18.3 °F 6.7 °F 30.34 in Calm     60 % 0.00 in 0.0 W/m2 CLR
06:26 18.3 °F 6.7 °F 30.33 in Calm     60 % 0.00 in 0.0 W/m2 CLR
06:31 17.9 °F 7.1 °F 30.33 in Calm     62 % 0.00 in 0.0 W/m2 CLR
06:36 17.5 °F 6.7 °F 30.33 in Calm     62 % 0.00 in 0.0 W/m2 CLR
06:41 17.4 °F 6.9 °F 30.33 in Calm     63 % 0.00 in 0.0 W/m2 CLR
06:46 17.5 °F 7.0 °F 30.33 in Calm     63 % 0.00 in 0.0 W/m2 CLR
06:51 17.6 °F 7.1 °F 30.34 in Calm     63 % 0.00 in 0.0 W/m2 CLR
06:57 17.6 °F 7.1 °F 30.34 in Calm     63 % 0.00 in 0.0 W/m2 CLR
07:02 17.4 °F 6.9 °F 30.34 in Calm     63 % 0.00 in 0.0 W/m2 CLR
07:07 17.3 °F 7.2 °F 30.34 in Calm     64 % 0.00 in 0.0 W/m2 CLR
07:12 17.4 °F 7.3 °F 30.34 in Calm     64 % 0.00 in 0.0 W/m2 CLR
07:17 17.3 °F 7.2 °F 30.34 in Calm     64 % 0.00 in 0.0 W/m2 CLR
07:22 17.0 °F 7.3 °F 30.34 in Calm     65 % 0.00 in 5.0 W/m2 CLR
07:27 16.6 °F 7.2 °F 30.34 in Calm     66 % 0.00 in 7.0 W/m2 CLR
07:32 16.1 °F 6.7 °F 30.34 in Calm     66 % 0.00 in 11.0 W/m2 CLR
07:37 15.9 °F 6.9 °F 30.34 in Calm     67 % 0.00 in 12.0 W/m2 CLR
07:42 16.0 °F 7.0 °F 30.35 in Calm     67 % 0.00 in 14.0 W/m2 CLR
07:47 16.1 °F 7.4 °F 30.35 in Calm     68 % 0.00 in 18.0 W/m2 CLR
07:52 16.4 °F 7.7 °F 30.35 in Calm     68 % 0.00 in 21.0 W/m2 CLR
07:57 16.7 °F 7.6 °F 30.35 in Calm     67 % 0.00 in 25.0 W/m2 CLR
08:02 17.1 °F 8.0 °F 30.35 in Calm     67 % 0.00 in 26.0 W/m2 CLR
08:07 17.9 °F 8.5 °F 30.35 in WNW 0.2 mph 1.2 mph 66 % 0.00 in 39.0 W/m2 SCT
08:12 18.3 °F 8.5 °F 30.35 in Calm     65 % 0.00 in 30.0 W/m2 BKN
08:17 18.6 °F 8.8 °F 30.35 in Calm   1.0 mph 65 % 0.00 in 33.0 W/m2 BKN
08:22 19.0 °F 9.2 °F 30.35 in WNW 0.1 mph 4.0 mph 65 % 0.00 in 90.0 W/m2 FEW
08:27 19.6 °F 9.0 °F 30.35 in WNW 2.5 mph 7.0 mph 63 % 0.00 in 70.0 W/m2 SCT
08:32 20.2 °F 9.2 °F 30.36 in WNW 0.1 mph 2.3 mph 62 % 0.00 in 70.0 W/m2 FEW
08:37 20.6 °F 9.3 °F 30.36 in WNW 0.9 mph 2.3 mph 61 % 0.00 in 63.0 W/m2 BKN
08:42 20.9 °F 9.2 °F 30.36 in WNW 0.2 mph 1.2 mph 60 % 0.00 in 76.0 W/m2 BKN
08:47 21.2 °F 9.5 °F 30.36 in West 2.8 mph 4.6 mph 60 % 0.00 in 79.0 W/m2 SCT
08:52 21.3 °F 9.2 °F 30.36 in WNW 3.3 mph 8.1 mph 59 % 0.00 in 134.0 W/m2 FEW
08:57 21.6 °F 9.5 °F 30.36 in West 3.5 mph 6.9 mph 59 % 0.00 in 90.0 W/m2 BKN
09:02 22.0 °F 10.2 °F 30.36 in WSW 1.6 mph 3.5 mph 60 % 0.00 in 156.0 W/m2 FEW
09:07 22.1 °F 9.9 °F 30.36 in WSW 1.1 mph 3.5 mph 59 % 0.00 in 232.0 W/m2 CLR
09:12 22.3 °F 10.5 °F 30.36 in West 1.6 mph 3.5 mph 60 % 0.00 in 204.0 W/m2 CLR
09:17 22.5 °F 10.7 °F 30.37 in SW 4.5 mph 8.1 mph 60 % 0.00 in 239.0 W/m2 FEW
09:22 22.8 °F 11.3 °F 30.37 in WNW 6.4 mph 10.4 mph 61 % 0.00 in 287.0 W/m2 CLR
09:27 23.3 °F 11.8 °F 30.37 in WSW 4.4 mph 10.4 mph 61 % 0.00 in 517.0 W/m2 CLR
09:32 23.5 °F 12.4 °F 30.37 in WNW 0.8 mph 5.8 mph 62 % 0.00 in 221.0 W/m2 FEW
09:37 23.8 °F 12.3 °F 30.37 in West 4.4 mph 13.0 mph 61 % 0.00 in 213.0 W/m2 SCT
09:42 23.6 °F 11.7 °F 30.37 in NW 9.8 mph 11.0 mph 60 % 0.00 in 192.0 W/m2 SCT
09:47 23.4 °F 11.5 °F 30.38 in NW 10.1 mph 13.8 mph 60 % 0.00 in 178.0 W/m2 BKN
09:52 23.8 °F 11.9 °F 30.37 in WNW 3.4 mph 7.0 mph 60 % 0.00 in 564.0 W/m2 CLR
09:57 24.6 °F 12.7 °F 30.37 in NW 4.0 mph 8.1 mph 60 % 0.00 in 497.0 W/m2 CLR
10:02 24.3 °F 12.4 °F 30.38 in WNW 0.5 mph 3.5 mph 60 % 0.00 in 199.0 W/m2 SCT
10:07 23.7 °F 11.4 °F 30.37 in West 3.1 mph 6.9 mph 59 % 0.00 in 153.0 W/m2 BKN
10:12 24.1 °F 11.8 °F 30.37 in WNW 4.9 mph 8.0 mph 59 % 0.00 in 571.0 W/m2 CLR
10:17 24.9 °F 12.6 °F 30.37 in NW 5.7 mph 11.5 mph 59 % 0.00 in 598.0 W/m2 CLR
10:22 25.6 °F 13.2 °F 30.37 in West 4.6 mph 8.1 mph 59 % 0.00 in 705.0 W/m2 CLR
10:27 25.5 °F 12.4 °F 30.37 in West 5.0 mph 9.2 mph 57 % 0.00 in 940.0 W/m2 CLR
10:32 25.4 °F 12.3 °F 30.38 in WNW 8.8 mph 11.5 mph 57 % 0.00 in 308.0 W/m2 FEW
10:38 24.7 °F 12.0 °F 30.37 in NW 3.5 mph 8.1 mph 58 % 0.00 in 237.0 W/m2 SCT
10:43 24.8 °F 12.1 °F 30.37 in WNW 0.4 mph 3.5 mph 58 % 0.00 in 255.0 W/m2 SCT
10:48 24.8 °F 11.7 °F 30.37 in NW 7.1 mph 13.0 mph 57 % 0.00 in 239.0 W/m2 SCT
10:53 24.8 °F 11.7 °F 30.37 in WNW 9.3 mph 13.8 mph 57 % 0.00 in 264.0 W/m2 BKN
10:58 24.9 °F 11.8 °F 30.38 in WNW 6.5 mph 11.5 mph 57 % 0.00 in 225.0 W/m2 BKN
11:04 24.7 °F 10.8 °F 30.38 in WNW 2.0 mph 8.1 mph 55 % 0.00 in 230.0 W/m2 BKN
11:10 25.0 °F 11.5 °F 30.38 in WNW 6.1 mph 11.5 mph 56 % 0.00 in 244.0 W/m2 BKN
13:30 27.1 °F 11.8 °F 30.36 in NW 4.1 mph 10.4 mph 52 % 0.00 in 323.0 W/m2 BKN
13:35 27.3 °F 12.4 °F 30.36 in West 7.9 mph 13.0 mph 53 % 0.00 in 383.0 W/m2 SCT
13:40 27.2 °F 11.9 °F 30.36 in NNW 9.8 mph 17.3 mph 52 % 0.00 in 410.0 W/m2 SCT
13:45 27.5 °F 12.6 °F 30.36 in NW 8.1 mph 15.0 mph 53 % 0.00 in 432.0 W/m2 SCT
13:46 27.5 °F 12.2 °F 30.36 in WNW 9.1 mph 16.1 mph 52 % 0.00 in 432.0 W/m2 SCT
13:47 27.6 °F 12.7 °F 30.36 in NNW 11.5 mph 17.3 mph 53 % 0.00 in 448.0 W/m2 FEW
13:52 27.5 °F 11.7 °F 30.36 in WNW 7.8 mph 12.7 mph 51 % 0.00 in 534.0 W/m2 CLR
13:57 28.0 °F 12.2 °F 30.35 in WNW 8.0 mph 13.0 mph 51 % 0.00 in 515.0 W/m2 FEW
14:02 28.3 °F 12.5 °F 30.35 in WNW 8.3 mph 15.0 mph 51 % 0.00 in 503.0 W/m2 FEW
14:07 28.7 °F 13.3 °F 30.35 in WNW 6.0 mph 16.1 mph 52 % 0.00 in 515.0 W/m2 FEW
14:12 28.8 °F 12.5 °F 30.35 in WNW 10.2 mph 13.8 mph 50 % 0.00 in 506.0 W/m2 FEW
14:17 28.4 °F 12.6 °F 30.35 in WNW 13.8 mph 19.6 mph 51 % 0.00 in 448.0 W/m2 SCT
14:22 28.3 °F 12.9 °F 30.35 in NW 14.4 mph 21.0 mph 52 % 0.00 in 385.0 W/m2 SCT
14:27 27.9 °F 11.6 °F 30.35 in WNW 8.7 mph 16.1 mph 50 % 0.00 in 364.0 W/m2 SCT
14:32 27.9 °F 12.1 °F 30.35 in NNW 7.2 mph 12.7 mph 51 % 0.00 in 330.0 W/m2 SCT
14:37 28.2 °F 12.8 °F 30.35 in WNW 9.1 mph 11.5 mph 52 % 0.00 in 383.0 W/m2 SCT
14:42 28.1 °F 11.8 °F 30.35 in WNW 9.1 mph 14.0 mph 50 % 0.00 in 364.0 W/m2 SCT
14:47 28.3 °F 12.5 °F 30.35 in NNW 8.3 mph 16.1 mph 51 % 0.00 in 380.0 W/m2 SCT
14:52 28.6 °F 11.8 °F 30.35 in West 10.0 mph 14.0 mph 49 % 0.00 in 378.0 W/m2 SCT
14:57 28.8 °F 12.5 °F 30.35 in NNW 8.2 mph 13.8 mph 50 % 0.00 in 557.0 W/m2 FEW
15:02 29.0 °F 11.7 °F 30.35 in West 11.1 mph 21.0 mph 48 % 0.00 in 475.0 W/m2 FEW
15:07 28.9 °F 11.2 °F 30.35 in WNW 9.1 mph 16.1 mph 47 % 0.00 in 441.0 W/m2 FEW
15:12 28.9 °F 11.6 °F 30.35 in WNW 9.8 mph 24.2 mph 48 % 0.00 in 533.0 W/m2 CLR
15:17 28.9 °F 11.6 °F 30.35 in West 11.3 mph 13.8 mph 48 % 0.00 in 554.0 W/m2 CLR
15:22 29.4 °F 12.6 °F 30.35 in West 9.7 mph 15.0 mph 49 % 0.00 in 432.0 W/m2 FEW
15:27 29.2 °F 12.4 °F 30.35 in WNW 10.9 mph 15.0 mph 49 % 0.00 in 424.0 W/m2 CLR
15:32 29.3 °F 12.0 °F 30.35 in NW 9.3 mph 12.7 mph 48 % 0.01 in 464.0 W/m2 RA
15:37 29.7 °F 12.8 °F 30.35 in NNW 9.2 mph 13.8 mph 49 % 0.01 in 696.0 W/m2 RA
15:42 29.2 °F 12.8 °F 30.35 in WNW 7.5 mph 13.8 mph 50 % 0.01 in 185.0 W/m2 BKN
15:47 28.9 °F 12.1 °F 30.35 in NW 3.3 mph 6.9 mph 49 % 0.01 in 146.0 W/m2 BKN
15:52 29.5 °F 12.7 °F 30.35 in NNW 7.0 mph 15.0 mph 49 % 0.01 in 657.0 W/m2 CLR
15:57 29.5 °F 12.7 °F 30.35 in NW 10.7 mph 14.0 mph 49 % 0.01 in 475.0 W/m2 CLR
16:02 29.9 °F 12.6 °F 30.35 in WNW 9.0 mph 13.0 mph 48 % 0.01 in 650.0 W/m2 CLR
16:07 30.8 °F 13.4 °F 30.34 in WNW 10.8 mph 13.0 mph 48 % 0.01 in 309.0 W/m2 CLR
16:12 30.5 °F 12.6 °F 30.35 in WNW 8.3 mph 17.3 mph 47 % 0.01 in 309.0 W/m2 FEW
16:17 30.2 °F 12.4 °F 30.35 in NW 10.2 mph 15.0 mph 47 % 0.01 in 221.0 W/m2 FEW
16:22 29.7 °F 12.4 °F 30.35 in NW 7.9 mph 13.8 mph 48 % 0.01 in 244.0 W/m2 SCT
16:27 29.4 °F 12.1 °F 30.35 in WNW 9.8 mph 11.5 mph 48 % 0.01 in 211.0 W/m2 SCT
16:32 29.5 °F 12.7 °F 30.35 in NW 8.9 mph 13.0 mph 49 % 0.00 in 649.0 W/m2 CLR
16:37 29.4 °F 12.1 °F 30.35 in NW 9.8 mph 11.5 mph 48 % 0.00 in 244.0 W/m2 SCT
16:42 29.8 °F 12.5 °F 30.35 in North 11.0 mph 13.0 mph 48 % 0.00 in 167.0 W/m2 SCT
16:47 29.5 °F 12.2 °F 30.35 in NNW 8.4 mph 11.5 mph 48 % 0.00 in 197.0 W/m2 SCT
16:52 29.7 °F 11.9 °F 30.35 in West 4.2 mph 11.5 mph 47 % 0.00 in 425.0 W/m2 CLR
16:57 30.2 °F 12.4 °F 30.35 in NW 5.4 mph 15.0 mph 47 % 0.00 in 411.0 W/m2 CLR
17:02 30.1 °F 12.3 °F 30.35 in NW 6.0 mph 12.7 mph 47 % 0.00 in 459.0 W/m2 CLR
17:07 30.3 °F 12.0 °F 30.35 in West 8.5 mph 12.0 mph 46 % 0.00 in 338.0 W/m2 CLR
17:12 30.5 °F 12.2 °F 30.35 in NW 7.2 mph 12.7 mph 46 % 0.00 in 448.0 W/m2 CLR
17:17 30.8 °F 12.9 °F 30.35 in NW 6.0 mph 8.1 mph 47 % 0.00 in 432.0 W/m2 CLR
17:22 30.9 °F 12.5 °F 30.35 in North 5.8 mph 9.2 mph 46 % 0.00 in 237.0 W/m2 CLR
17:28 30.4 °F 12.1 °F 30.35 in NW 6.6 mph 12.0 mph 46 % 0.00 in 355.0 W/m2 CLR
17:33 30.8 °F 12.9 °F 30.35 in NW 5.1 mph 11.5 mph 47 % 0.00 in 360.0 W/m2 CLR
17:38 31.4 °F 13.0 °F 30.35 in WNW 12.0 mph 13.8 mph 46 % 0.00 in 329.0 W/m2 CLR
17:43 31.1 °F 12.2 °F 30.35 in NW 7.3 mph 10.4 mph 45 % 0.00 in 290.0 W/m2 CLR
17:48 31.2 °F 12.8 °F 30.35 in WNW 7.8 mph 11.5 mph 46 % 0.00 in 265.0 W/m2 CLR
17:53 31.1 °F 12.2 °F 30.35 in NW 7.6 mph 10.4 mph 45 % 0.00 in 230.0 W/m2 CLR
17:58 30.8 °F 11.9 °F 30.35 in NW 4.7 mph 6.0 mph 45 % 0.00 in 195.0 W/m2 CLR
18:03 30.6 °F 11.7 °F 30.35 in WNW 5.1 mph 11.5 mph 45 % 0.00 in 174.0 W/m2 CLR
18:08 30.2 °F 11.4 °F 30.35 in WNW 7.7 mph 10.4 mph 45 % 0.00 in 134.0 W/m2 CLR
18:13 29.9 °F 11.6 °F 30.36 in WNW 7.3 mph 11.5 mph 46 % 0.00 in 79.0 W/m2 FEW
18:18 29.5 °F 12.2 °F 30.36 in NW 5.0 mph 6.9 mph 48 % 0.00 in 28.0 W/m2 BKN
18:23 28.9 °F 11.6 °F 30.36 in WNW 4.1 mph 8.1 mph 48 % 0.00 in 23.0 W/m2 OVC
18:24 28.9 °F 11.6 °F 30.36 in NW 5.8 mph 8.1 mph 48 % 0.00 in 23.0 W/m2 OVC
18:29 28.5 °F 11.3 °F 30.36 in WNW 2.6 mph 11.5 mph 48 % 0.00 in 19.0 W/m2 OVC
18:34 28.2 °F 11.9 °F 30.36 in WNW 4.5 mph 8.0 mph 50 % 0.00 in 16.0 W/m2 BKN
18:39 28.2 °F 11.5 °F 30.36 in WNW 5.3 mph 9.2 mph 49 % 0.00 in 14.0 W/m2 OVC
18:44 28.1 °F 10.9 °F 30.36 in WNW 6.2 mph 12.7 mph 48 % 0.00 in 14.0 W/m2 BKN
18:49 28.1 °F 10.9 °F 30.36 in WNW 6.9 mph 8.1 mph 48 % 0.00 in 11.0 W/m2 BKN
18:50 28.1 °F 10.9 °F 30.36 in West 7.8 mph 11.5 mph 48 % 0.00 in 11.0 W/m2 BKN
18:55 28.0 °F 10.8 °F 30.37 in West 6.9 mph 13.0 mph 48 % 0.00 in 11.0 W/m2 SCT
19:00 27.9 °F 10.7 °F 30.37 in West 4.7 mph 8.1 mph 48 % 0.00 in 7.0 W/m2 FEW
19:05 27.9 °F 10.7 °F 30.37 in West 5.9 mph 11.5 mph 48 % 0.00 in 5.0 W/m2 CLR
19:10 27.8 °F 10.6 °F 30.38 in WNW 5.1 mph 9.2 mph 48 % 0.00 in 0.0 W/m2 CLR
19:15 27.7 °F 10.5 °F 30.38 in WSW 3.9 mph 9.0 mph 48 % 0.00 in 0.0 W/m2 CLR
19:20 27.6 °F 10.9 °F 30.38 in WSW 6.3 mph 13.0 mph 49 % 0.00 in 0.0 W/m2 CLR
19:25 27.6 °F 10.9 °F 30.38 in WSW 5.6 mph 8.1 mph 49 % 0.00 in 0.0 W/m2 CLR
19:30 27.5 °F 10.8 °F 30.38 in WNW 3.1 mph 6.9 mph 49 % 0.00 in 0.0 W/m2 CLR
19:35 27.4 °F 11.2 °F 30.38 in WSW 2.2 mph 6.0 mph 50 % 0.00 in 0.0 W/m2 CLR
19:40 27.3 °F 11.1 °F 30.39 in WSW 3.6 mph 8.1 mph 50 % 0.00 in 0.0 W/m2 CLR
19:45 27.2 °F 11.4 °F 30.39 in West 3.1 mph 4.6 mph 51 % 0.00 in 0.0 W/m2 CLR
19:50 27.1 °F 11.3 °F 30.39 in West 2.9 mph 8.1 mph 51 % 0.00 in 0.0 W/m2 CLR
19:55 27.0 °F 11.3 °F 30.39 in West 1.6 mph 5.8 mph 51 % 0.00 in 0.0 W/m2 CLR
20:00 27.0 °F 11.3 °F 30.39 in West 2.8 mph 5.8 mph 51 % 0.00 in 0.0 W/m2 CLR
20:05 26.9 °F 11.6 °F 30.39 in West 1.3 mph 3.5 mph 52 % 0.00 in 0.0 W/m2 CLR
20:10 26.7 °F 11.4 °F 30.40 in West 0.5 mph 2.3 mph 52 % 0.00 in 0.0 W/m2 CLR
20:15 26.5 °F 11.7 °F 30.40 in West 1.2 mph 3.5 mph 53 % 0.00 in 0.0 W/m2 CLR
20:20 26.4 °F 11.6 °F 30.40 in West 0.6 mph 3.5 mph 53 % 0.00 in 0.0 W/m2 CLR
20:25 26.3 °F 11.9 °F 30.40 in West 0.1 mph 3.5 mph 54 % 0.00 in 0.0 W/m2 CLR
20:31 26.1 °F 11.7 °F 30.40 in Calm   1.2 mph 54 % 0.00 in 0.0 W/m2 CLR
20:36 26.1 °F 11.7 °F 30.41 in Calm     54 % 0.00 in 0.0 W/m2 CLR
20:41 26.0 °F 11.6 °F 30.41 in Calm   3.5 mph 54 % 0.00 in 0.0 W/m2 CLR
20:46 26.0 °F 11.2 °F 30.41 in West 0.2 mph 3.5 mph 53 % 0.00 in 0.0 W/m2 CLR
20:51 26.0 °F 11.2 °F 30.42 in Calm   2.3 mph 53 % 0.00 in 0.0 W/m2 CLR
20:56 25.9 °F 10.7 °F 30.42 in West 0.2 mph 3.5 mph 52 % 0.00 in 0.0 W/m2 CLR
21:01 25.9 °F 10.7 °F 30.42 in Calm   1.2 mph 52 % 0.00 in 0.0 W/m2 CLR
21:06 25.9 °F 10.2 °F 30.42 in Calm   1.2 mph 51 % 0.00 in 0.0 W/m2 CLR
21:11 25.8 °F 10.1 °F 30.42 in Calm     51 % 0.00 in 0.0 W/m2 CLR
21:16 25.5 °F 10.3 °F 30.42 in Calm     52 % 0.00 in 0.0 W/m2 CLR
21:21 25.3 °F 10.1 °F 30.43 in Calm     52 % 0.00 in 0.0 W/m2 CLR
21:26 25.1 °F 9.9 °F 30.43 in WNW 1.0 mph 3.5 mph 52 % 0.00 in 0.0 W/m2 CLR
21:31 24.9 °F 9.7 °F 30.43 in WNW 0.8 mph 2.3 mph 52 % 0.00 in 0.0 W/m2 CLR
21:36 24.8 °F 9.2 °F 30.43 in NW 0.5 mph 2.3 mph 51 % 0.00 in 0.0 W/m2 CLR
21:41 24.6 °F 9.5 °F 30.43 in NW 3.3 mph 4.6 mph 52 % 0.00 in 0.0 W/m2 CLR
21:46 24.4 °F 9.3 °F 30.43 in NW 1.8 mph 4.6 mph 52 % 0.00 in 0.0 W/m2 CLR
21:51 24.2 °F 9.1 °F 30.43 in NW 0.9 mph 2.3 mph 52 % 0.00 in 0.0 W/m2 CLR
21:56 24.0 °F 9.3 °F 30.43 in NW 1.9 mph 5.0 mph 53 % 0.00 in 0.0 W/m2 CLR
22:01 24.1 °F 9.4 °F 30.43 in NNW 3.7 mph 11.5 mph 53 % 0.00 in 0.0 W/m2 CLR
22:06 24.2 °F 9.1 °F 30.43 in NNW 2.4 mph 3.5 mph 52 % 0.00 in 0.0 W/m2 CLR
22:11 24.3 °F 8.7 °F 30.43 in NNW 2.1 mph 8.1 mph 51 % 0.00 in 0.0 W/m2 CLR
22:16 24.3 °F 8.7 °F 30.43 in NNW 1.5 mph 3.5 mph 51 % 0.00 in 0.0 W/m2 CLR
22:21 24.2 °F 8.2 °F 30.43 in NNW 0.7 mph 3.5 mph 50 % 0.00 in 0.0 W/m2 CLR
22:26 24.1 °F 8.1 °F 30.44 in Calm   2.3 mph 50 % 0.00 in 0.0 W/m2 CLR
22:31 24.0 °F 8.0 °F 30.43 in Calm     50 % 0.00 in 0.0 W/m2 CLR
22:36 23.8 °F 7.8 °F 30.43 in Calm   1.2 mph 50 % 0.00 in 0.0 W/m2 CLR
22:41 23.8 °F 7.4 °F 30.44 in North 1.7 mph 3.5 mph 49 % 0.00 in 0.0 W/m2 CLR
22:46 23.7 °F 7.3 °F 30.44 in NNW 2.4 mph 8.1 mph 49 % 0.00 in 0.0 W/m2 CLR
22:51 23.6 °F 6.8 °F 30.44 in NNW 2.8 mph 3.5 mph 48 % 0.00 in 0.0 W/m2 CLR
22:56 23.5 °F 6.7 °F 30.44 in NW 1.0 mph 3.5 mph 48 % 0.00 in 0.0 W/m2 CLR
23:01 23.4 °F 6.6 °F 30.44 in NW 4.3 mph 5.8 mph 48 % 0.00 in 0.0 W/m2 CLR
23:06 23.3 °F 6.5 °F 30.44 in NNW 0.4 mph 3.5 mph 48 % 0.00 in 0.0 W/m2 CLR
23:11 23.2 °F 6.8 °F 30.44 in North 2.1 mph 3.0 mph 49 % 0.00 in 0.0 W/m2 CLR
23:17 23.2 °F 6.4 °F 30.44 in NNW 1.1 mph 9.2 mph 48 % 0.00 in 0.0 W/m2 CLR
23:22 23.2 °F 6.4 °F 30.44 in NNW 3.9 mph 3.9 mph 48 % 0.00 in 0.0 W/m2 CLR
23:27 23.1 °F 6.3 °F 30.45 in NNW 1.5 mph 3.0 mph 48 % 0.00 in 0.0 W/m2 CLR
23:32 23.0 °F 5.7 °F 30.45 in Calm   1.2 mph 47 % 0.00 in 0.0 W/m2 CLR
23:37 22.8 °F 5.6 °F 30.45 in Calm     47 % 0.00 in 0.0 W/m2 CLR
23:42 22.6 °F 5.8 °F 30.46 in NNW 1.0 mph 3.5 mph 48 % 0.00 in 0.0 W/m2 CLR
23:47 22.3 °F 6.0 °F 30.46 in Calm     49 % 0.00 in 0.0 W/m2 CLR
23:52 22.1 °F 6.3 °F 30.46 in NNW 0.2 mph 3.5 mph 50 % 0.00 in 0.0 W/m2 CLR
23:57 22.0 °F 6.2 °F 30.46 in NW 2.1 mph 4.6 mph 50 % 0.00 in 0.0 W/m2 CLR
Air Products Campus Weather
Compliments of Weather Underground - 3.25 mb